sensor_id;sensor_type;location;lat;lon;timestamp;temperature;humidity
6307;DHT22;3186;54.062;9.962;2023-12-20T00:01:49;6.20;99.90
6307;DHT22;3186;54.062;9.962;2023-12-20T00:04:14;6.10;99.90
6307;DHT22;3186;54.062;9.962;2023-12-20T00:06:40;6.10;99.90
6307;DHT22;3186;54.062;9.962;2023-12-20T00:09:06;6.10;99.90
6307;DHT22;3186;54.062;9.962;2023-12-20T00:11:31;6.10;99.90
6307;DHT22;3186;54.062;9.962;2023-12-20T00:13:57;6.00;99.90
6307;DHT22;3186;54.062;9.962;2023-12-20T00:16:22;6.10;99.90
6307;DHT22;3186;54.062;9.962;2023-12-20T00:18:48;6.10;99.90
6307;DHT22;3186;54.062;9.962;2023-12-20T00:21:13;6.00;99.90
6307;DHT22;3186;54.062;9.962;2023-12-20T00:23:39;6.00;99.90
6307;DHT22;3186;54.062;9.962;2023-12-20T00:26:05;6.00;99.90
6307;DHT22;3186;54.062;9.962;2023-12-20T00:28:30;6.00;99.90
6307;DHT22;3186;54.062;9.962;2023-12-20T00:30:56;6.00;99.90
6307;DHT22;3186;54.062;9.962;2023-12-20T00:33:21;6.00;99.90
6307;DHT22;3186;54.062;9.962;2023-12-20T00:35:47;6.00;99.90
6307;DHT22;3186;54.062;9.962;2023-12-20T00:38:13;5.90;99.90
6307;DHT22;3186;54.062;9.962;2023-12-20T00:40:39;5.90;99.90
6307;DHT22;3186;54.062;9.962;2023-12-20T00:43:05;5.90;99.90
6307;DHT22;3186;54.062;9.962;2023-12-20T00:45:31;5.90;99.90
6307;DHT22;3186;54.062;9.962;2023-12-20T00:47:56;5.90;99.90
6307;DHT22;3186;54.062;9.962;2023-12-20T00:50:22;5.90;99.90
6307;DHT22;3186;54.062;9.962;2023-12-20T00:52:48;5.80;99.90
6307;DHT22;3186;54.062;9.962;2023-12-20T00:55:14;5.90;99.90
6307;DHT22;3186;54.062;9.962;2023-12-20T00:57:39;5.80;99.90
6307;DHT22;3186;54.062;9.962;2023-12-20T01:00:06;5.90;99.90
6307;DHT22;3186;54.062;9.962;2023-12-20T01:02:31;5.90;99.90
6307;DHT22;3186;54.062;9.962;2023-12-20T01:04:57;5.90;99.90
6307;DHT22;3186;54.062;9.962;2023-12-20T01:07:22;5.80;99.90
6307;DHT22;3186;54.062;9.962;2023-12-20T01:09:48;5.80;99.90
6307;DHT22;3186;54.062;9.962;2023-12-20T01:12:15;5.90;99.90
6307;DHT22;3186;54.062;9.962;2023-12-20T01:14:40;5.80;99.90
6307;DHT22;3186;54.062;9.962;2023-12-20T01:17:06;5.80;99.90
6307;DHT22;3186;54.062;9.962;2023-12-20T01:19:31;5.80;99.90
6307;DHT22;3186;54.062;9.962;2023-12-20T01:21:57;5.70;99.90
6307;DHT22;3186;54.062;9.962;2023-12-20T01:24:23;5.70;99.90
6307;DHT22;3186;54.062;9.962;2023-12-20T01:26:48;5.70;99.90
6307;DHT22;3186;54.062;9.962;2023-12-20T01:29:14;5.70;99.90
6307;DHT22;3186;54.062;9.962;2023-12-20T01:31:40;5.80;99.90
6307;DHT22;3186;54.062;9.962;2023-12-20T01:34:06;5.70;99.90
6307;DHT22;3186;54.062;9.962;2023-12-20T01:36:32;5.70;99.90
6307;DHT22;3186;54.062;9.962;2023-12-20T01:38:57;5.80;99.90
6307;DHT22;3186;54.062;9.962;2023-12-20T01:41:23;5.70;99.90
6307;DHT22;3186;54.062;9.962;2023-12-20T01:43:48;5.70;99.90
6307;DHT22;3186;54.062;9.962;2023-12-20T01:46:14;5.70;99.90
6307;DHT22;3186;54.062;9.962;2023-12-20T01:48:41;5.70;99.90
6307;DHT22;3186;54.062;9.962;2023-12-20T01:51:07;5.80;99.90
6307;DHT22;3186;54.062;9.962;2023-12-20T01:53:33;5.70;99.90
6307;DHT22;3186;54.062;9.962;2023-12-20T01:55:59;5.80;99.90
6307;DHT22;3186;54.062;9.962;2023-12-20T01:58:25;5.70;99.90
6307;DHT22;3186;54.062;9.962;2023-12-20T02:00:51;5.70;99.90
6307;DHT22;3186;54.062;9.962;2023-12-20T02:03:18;5.70;99.90
6307;DHT22;3186;54.062;9.962;2023-12-20T02:05:44;5.80;99.90
6307;DHT22;3186;54.062;9.962;2023-12-20T02:08:11;5.70;99.90
6307;DHT22;3186;54.062;9.962;2023-12-20T02:10:37;5.80;99.90
6307;DHT22;3186;54.062;9.962;2023-12-20T02:13:03;5.70;99.90
6307;DHT22;3186;54.062;9.962;2023-12-20T02:15:29;5.80;99.90
6307;DHT22;3186;54.062;9.962;2023-12-20T02:17:55;5.80;99.90
6307;DHT22;3186;54.062;9.962;2023-12-20T02:20:21;5.80;99.90
6307;DHT22;3186;54.062;9.962;2023-12-20T02:22:47;5.80;99.90
6307;DHT22;3186;54.062;9.962;2023-12-20T02:25:12;5.80;99.90
6307;DHT22;3186;54.062;9.962;2023-12-20T02:27:39;5.80;99.90
6307;DHT22;3186;54.062;9.962;2023-12-20T02:30:05;5.70;99.90
6307;DHT22;3186;54.062;9.962;2023-12-20T02:32:31;5.70;99.90
6307;DHT22;3186;54.062;9.962;2023-12-20T02:34:57;5.80;99.90
6307;DHT22;3186;54.062;9.962;2023-12-20T02:37:23;5.80;99.90
6307;DHT22;3186;54.062;9.962;2023-12-20T02:39:49;5.70;99.90
6307;DHT22;3186;54.062;9.962;2023-12-20T02:42:14;5.80;99.90
6307;DHT22;3186;54.062;9.962;2023-12-20T02:44:40;5.80;99.90
6307;DHT22;3186;54.062;9.962;2023-12-20T02:47:05;5.80;99.90
6307;DHT22;3186;54.062;9.962;2023-12-20T02:49:31;5.80;99.90
6307;DHT22;3186;54.062;9.962;2023-12-20T02:51:57;5.80;99.90
6307;DHT22;3186;54.062;9.962;2023-12-20T02:54:22;5.80;99.90
6307;DHT22;3186;54.062;9.962;2023-12-20T02:56:48;5.80;99.90
6307;DHT22;3186;54.062;9.962;2023-12-20T02:59:13;5.90;99.90
6307;DHT22;3186;54.062;9.962;2023-12-20T03:01:44;5.80;99.90
6307;DHT22;3186;54.062;9.962;2023-12-20T03:04:10;5.90;99.90
6307;DHT22;3186;54.062;9.962;2023-12-20T03:06:36;5.80;99.90
6307;DHT22;3186;54.062;9.962;2023-12-20T03:09:02;5.70;99.90
6307;DHT22;3186;54.062;9.962;2023-12-20T03:11:27;5.80;99.90
6307;DHT22;3186;54.062;9.962;2023-12-20T03:13:57;5.80;99.90
6307;DHT22;3186;54.062;9.962;2023-12-20T03:16:23;5.80;99.90
6307;DHT22;3186;54.062;9.962;2023-12-20T03:18:49;5.80;99.90
6307;DHT22;3186;54.062;9.962;2023-12-20T03:21:15;5.80;99.90
6307;DHT22;3186;54.062;9.962;2023-12-20T03:23:40;5.90;99.90
6307;DHT22;3186;54.062;9.962;2023-12-20T03:30:24;5.90;99.90
6307;DHT22;3186;54.062;9.962;2023-12-20T03:32:50;5.90;99.90
6307;DHT22;3186;54.062;9.962;2023-12-20T03:35:15;5.80;99.90
6307;DHT22;3186;54.062;9.962;2023-12-20T03:37:41;5.80;99.90
6307;DHT22;3186;54.062;9.962;2023-12-20T03:40:07;5.80;99.90
6307;DHT22;3186;54.062;9.962;2023-12-20T03:42:33;5.80;99.90
6307;DHT22;3186;54.062;9.962;2023-12-20T03:44:58;5.90;99.90
6307;DHT22;3186;54.062;9.962;2023-12-20T03:47:24;5.80;99.90
6307;DHT22;3186;54.062;9.962;2023-12-20T03:49:49;5.90;99.90
6307;DHT22;3186;54.062;9.962;2023-12-20T03:52:15;5.90;99.90
6307;DHT22;3186;54.062;9.962;2023-12-20T03:54:40;5.90;99.90
6307;DHT22;3186;54.062;9.962;2023-12-20T03:57:09;5.80;99.90
6307;DHT22;3186;54.062;9.962;2023-12-20T03:59:36;5.90;99.90
6307;DHT22;3186;54.062;9.962;2023-12-20T04:02:01;5.90;99.90
6307;DHT22;3186;54.062;9.962;2023-12-20T04:04:27;5.90;99.90
6307;DHT22;3186;54.062;9.962;2023-12-20T04:06:53;5.90;99.90
6307;DHT22;3186;54.062;9.962;2023-12-20T04:09:18;5.80;99.90
6307;DHT22;3186;54.062;9.962;2023-12-20T04:11:44;5.90;99.90
6307;DHT22;3186;54.062;9.962;2023-12-20T04:14:10;5.90;99.90
6307;DHT22;3186;54.062;9.962;2023-12-20T04:16:35;5.90;99.90
6307;DHT22;3186;54.062;9.962;2023-12-20T04:19:01;5.90;99.90
6307;DHT22;3186;54.062;9.962;2023-12-20T04:21:27;5.90;99.90
6307;DHT22;3186;54.062;9.962;2023-12-20T04:23:53;6.00;99.90
6307;DHT22;3186;54.062;9.962;2023-12-20T04:26:19;5.90;99.90
6307;DHT22;3186;54.062;9.962;2023-12-20T04:28:44;5.90;99.90
6307;DHT22;3186;54.062;9.962;2023-12-20T04:31:10;6.00;99.90
6307;DHT22;3186;54.062;9.962;2023-12-20T04:33:35;5.90;99.90
6307;DHT22;3186;54.062;9.962;2023-12-20T04:36:01;5.90;99.90
6307;DHT22;3186;54.062;9.962;2023-12-20T04:38:27;5.90;99.90
6307;DHT22;3186;54.062;9.962;2023-12-20T04:40:52;5.90;99.90
6307;DHT22;3186;54.062;9.962;2023-12-20T04:43:18;5.90;99.90
6307;DHT22;3186;54.062;9.962;2023-12-20T04:45:43;5.90;99.90
6307;DHT22;3186;54.062;9.962;2023-12-20T04:48:09;6.00;99.90
6307;DHT22;3186;54.062;9.962;2023-12-20T04:50:35;6.00;99.90
6307;DHT22;3186;54.062;9.962;2023-12-20T04:53:00;6.00;99.90
6307;DHT22;3186;54.062;9.962;2023-12-20T04:55:26;6.00;99.90
6307;DHT22;3186;54.062;9.962;2023-12-20T04:57:52;5.90;99.90
6307;DHT22;3186;54.062;9.962;2023-12-20T05:00:17;5.90;99.90
6307;DHT22;3186;54.062;9.962;2023-12-20T05:02:43;5.90;99.90
6307;DHT22;3186;54.062;9.962;2023-12-20T05:05:09;5.90;99.90
6307;DHT22;3186;54.062;9.962;2023-12-20T05:07:34;5.90;99.90
6307;DHT22;3186;54.062;9.962;2023-12-20T05:10:00;5.90;99.90
6307;DHT22;3186;54.062;9.962;2023-12-20T05:12:26;5.90;99.90
6307;DHT22;3186;54.062;9.962;2023-12-20T05:14:52;5.90;99.90
6307;DHT22;3186;54.062;9.962;2023-12-20T05:17:18;5.90;99.90
6307;DHT22;3186;54.062;9.962;2023-12-20T05:19:43;5.90;99.90
6307;DHT22;3186;54.062;9.962;2023-12-20T05:22:09;5.90;99.90
6307;DHT22;3186;54.062;9.962;2023-12-20T05:24:35;6.00;99.90
6307;DHT22;3186;54.062;9.962;2023-12-20T05:27:01;6.00;99.90
6307;DHT22;3186;54.062;9.962;2023-12-20T05:29:26;5.90;99.90
6307;DHT22;3186;54.062;9.962;2023-12-20T05:31:52;5.90;99.90
6307;DHT22;3186;54.062;9.962;2023-12-20T05:34:17;5.90;99.90
6307;DHT22;3186;54.062;9.962;2023-12-20T05:36:43;5.90;99.90
6307;DHT22;3186;54.062;9.962;2023-12-20T05:39:08;5.90;99.90
6307;DHT22;3186;54.062;9.962;2023-12-20T05:41:34;6.00;99.90
6307;DHT22;3186;54.062;9.962;2023-12-20T05:44:00;6.00;99.90
6307;DHT22;3186;54.062;9.962;2023-12-20T05:46:26;6.00;99.90
6307;DHT22;3186;54.062;9.962;2023-12-20T05:48:51;6.00;99.90
6307;DHT22;3186;54.062;9.962;2023-12-20T05:51:17;6.10;99.90
6307;DHT22;3186;54.062;9.962;2023-12-20T05:53:44;6.00;99.90
6307;DHT22;3186;54.062;9.962;2023-12-20T05:56:10;6.00;99.90
6307;DHT22;3186;54.062;9.962;2023-12-20T05:58:36;6.00;99.90
6307;DHT22;3186;54.062;9.962;2023-12-20T06:01:04;6.00;99.90
6307;DHT22;3186;54.062;9.962;2023-12-20T06:03:30;6.20;99.90
6307;DHT22;3186;54.062;9.962;2023-12-20T06:05:55;6.00;99.90
6307;DHT22;3186;54.062;9.962;2023-12-20T06:08:21;6.00;99.90
6307;DHT22;3186;54.062;9.962;2023-12-20T06:10:47;6.10;99.90
6307;DHT22;3186;54.062;9.962;2023-12-20T06:13:12;6.10;99.90
6307;DHT22;3186;54.062;9.962;2023-12-20T06:15:39;6.00;99.90
6307;DHT22;3186;54.062;9.962;2023-12-20T06:18:06;6.00;99.90
6307;DHT22;3186;54.062;9.962;2023-12-20T06:20:32;6.00;99.90
6307;DHT22;3186;54.062;9.962;2023-12-20T06:22:58;6.00;99.90
6307;DHT22;3186;54.062;9.962;2023-12-20T06:25:24;6.00;99.90
6307;DHT22;3186;54.062;9.962;2023-12-20T06:27:49;6.00;99.90
6307;DHT22;3186;54.062;9.962;2023-12-20T06:30:16;6.00;99.90
6307;DHT22;3186;54.062;9.962;2023-12-20T06:32:42;6.00;99.90
6307;DHT22;3186;54.062;9.962;2023-12-20T06:35:09;6.00;99.90
6307;DHT22;3186;54.062;9.962;2023-12-20T06:37:34;5.90;99.90
6307;DHT22;3186;54.062;9.962;2023-12-20T06:40:00;5.90;99.90
6307;DHT22;3186;54.062;9.962;2023-12-20T06:42:26;6.00;99.90
6307;DHT22;3186;54.062;9.962;2023-12-20T06:44:52;6.00;99.90
6307;DHT22;3186;54.062;9.962;2023-12-20T06:47:17;6.00;99.90
6307;DHT22;3186;54.062;9.962;2023-12-20T06:49:43;6.00;99.90
6307;DHT22;3186;54.062;9.962;2023-12-20T06:52:09;6.00;99.90
6307;DHT22;3186;54.062;9.962;2023-12-20T06:54:34;6.00;99.90
6307;DHT22;3186;54.062;9.962;2023-12-20T06:57:00;6.10;99.90
6307;DHT22;3186;54.062;9.962;2023-12-20T06:59:28;6.10;99.90
6307;DHT22;3186;54.062;9.962;2023-12-20T07:01:54;6.00;99.90
6307;DHT22;3186;54.062;9.962;2023-12-20T07:04:19;6.00;99.90
6307;DHT22;3186;54.062;9.962;2023-12-20T07:06:47;6.10;99.90
6307;DHT22;3186;54.062;9.962;2023-12-20T07:09:14;6.10;99.90
6307;DHT22;3186;54.062;9.962;2023-12-20T07:11:39;6.10;99.90
6307;DHT22;3186;54.062;9.962;2023-12-20T07:14:05;6.00;99.90
6307;DHT22;3186;54.062;9.962;2023-12-20T07:16:31;6.00;99.90
6307;DHT22;3186;54.062;9.962;2023-12-20T07:18:57;6.00;99.90
6307;DHT22;3186;54.062;9.962;2023-12-20T07:21:22;6.00;99.90
6307;DHT22;3186;54.062;9.962;2023-12-20T07:23:48;6.00;99.90
6307;DHT22;3186;54.062;9.962;2023-12-20T07:26:14;5.90;99.90
6307;DHT22;3186;54.062;9.962;2023-12-20T07:28:40;5.90;99.90
6307;DHT22;3186;54.062;9.962;2023-12-20T07:31:06;6.00;99.90
6307;DHT22;3186;54.062;9.962;2023-12-20T07:33:31;6.00;99.90
6307;DHT22;3186;54.062;9.962;2023-12-20T07:35:59;6.00;99.90
6307;DHT22;3186;54.062;9.962;2023-12-20T07:38:24;6.10;99.90
6307;DHT22;3186;54.062;9.962;2023-12-20T07:40:50;6.10;99.90
6307;DHT22;3186;54.062;9.962;2023-12-20T07:43:16;6.00;99.90
6307;DHT22;3186;54.062;9.962;2023-12-20T07:45:41;6.10;99.90
6307;DHT22;3186;54.062;9.962;2023-12-20T07:48:07;6.10;99.90
6307;DHT22;3186;54.062;9.962;2023-12-20T07:50:33;6.10;99.90
6307;DHT22;3186;54.062;9.962;2023-12-20T07:52:58;6.10;99.90
6307;DHT22;3186;54.062;9.962;2023-12-20T07:55:26;6.10;99.90
6307;DHT22;3186;54.062;9.962;2023-12-20T07:57:52;6.00;99.90
6307;DHT22;3186;54.062;9.962;2023-12-20T08:00:18;6.10;99.90
6307;DHT22;3186;54.062;9.962;2023-12-20T08:02:44;6.10;99.90
6307;DHT22;3186;54.062;9.962;2023-12-20T08:05:09;5.90;99.90
6307;DHT22;3186;54.062;9.962;2023-12-20T08:07:35;5.80;99.90
6307;DHT22;3186;54.062;9.962;2023-12-20T08:10:01;5.80;99.90
6307;DHT22;3186;54.062;9.962;2023-12-20T08:12:26;5.80;99.90
6307;DHT22;3186;54.062;9.962;2023-12-20T08:14:53;5.90;99.90
6307;DHT22;3186;54.062;9.962;2023-12-20T08:17:19;6.00;99.90
6307;DHT22;3186;54.062;9.962;2023-12-20T08:19:45;5.90;99.90
6307;DHT22;3186;54.062;9.962;2023-12-20T08:22:11;6.00;99.90
6307;DHT22;3186;54.062;9.962;2023-12-20T08:24:37;6.00;99.90
6307;DHT22;3186;54.062;9.962;2023-12-20T08:27:03;6.00;99.90
6307;DHT22;3186;54.062;9.962;2023-12-20T08:29:28;6.00;99.90
6307;DHT22;3186;54.062;9.962;2023-12-20T08:31:55;6.10;99.90
6307;DHT22;3186;54.062;9.962;2023-12-20T08:34:21;6.10;99.90
6307;DHT22;3186;54.062;9.962;2023-12-20T08:36:47;6.10;99.90
6307;DHT22;3186;54.062;9.962;2023-12-20T08:39:13;6.10;99.90
6307;DHT22;3186;54.062;9.962;2023-12-20T08:41:38;6.10;99.90
6307;DHT22;3186;54.062;9.962;2023-12-20T08:44:04;6.10;99.90
6307;DHT22;3186;54.062;9.962;2023-12-20T08:46:29;5.90;99.90
6307;DHT22;3186;54.062;9.962;2023-12-20T08:48:55;5.70;99.90
6307;DHT22;3186;54.062;9.962;2023-12-20T08:51:21;5.70;99.90
6307;DHT22;3186;54.062;9.962;2023-12-20T08:53:49;5.70;99.90
6307;DHT22;3186;54.062;9.962;2023-12-20T08:56:15;5.70;99.90
6307;DHT22;3186;54.062;9.962;2023-12-20T08:58:40;5.70;99.90
6307;DHT22;3186;54.062;9.962;2023-12-20T09:01:07;5.70;99.90
6307;DHT22;3186;54.062;9.962;2023-12-20T09:03:33;5.80;99.90
6307;DHT22;3186;54.062;9.962;2023-12-20T09:05:58;5.70;99.90
6307;DHT22;3186;54.062;9.962;2023-12-20T09:08:24;5.70;99.90
6307;DHT22;3186;54.062;9.962;2023-12-20T09:10:50;5.80;99.90
6307;DHT22;3186;54.062;9.962;2023-12-20T09:13:15;5.80;99.90
6307;DHT22;3186;54.062;9.962;2023-12-20T09:15:41;5.80;99.90
6307;DHT22;3186;54.062;9.962;2023-12-20T09:18:07;5.70;99.90
6307;DHT22;3186;54.062;9.962;2023-12-20T09:20:33;5.70;99.90
6307;DHT22;3186;54.062;9.962;2023-12-20T09:22:59;5.80;99.90
6307;DHT22;3186;54.062;9.962;2023-12-20T09:25:25;5.70;99.90
6307;DHT22;3186;54.062;9.962;2023-12-20T09:27:52;5.70;99.90
6307;DHT22;3186;54.062;9.962;2023-12-20T09:30:18;5.80;99.90
6307;DHT22;3186;54.062;9.962;2023-12-20T09:32:44;5.80;99.90
6307;DHT22;3186;54.062;9.962;2023-12-20T09:35:10;5.80;99.90
6307;DHT22;3186;54.062;9.962;2023-12-20T09:37:36;5.70;99.90
6307;DHT22;3186;54.062;9.962;2023-12-20T09:40:02;5.80;99.90
6307;DHT22;3186;54.062;9.962;2023-12-20T09:42:40;5.80;99.90
6307;DHT22;3186;54.062;9.962;2023-12-20T09:45:09;5.80;99.90
6307;DHT22;3186;54.062;9.962;2023-12-20T09:47:37;5.70;99.90
6307;DHT22;3186;54.062;9.962;2023-12-20T09:50:03;5.70;99.90
6307;DHT22;3186;54.062;9.962;2023-12-20T09:52:29;5.70;99.90
6307;DHT22;3186;54.062;9.962;2023-12-20T09:54:55;5.80;99.90
6307;DHT22;3186;54.062;9.962;2023-12-20T09:57:22;5.80;99.90
6307;DHT22;3186;54.062;9.962;2023-12-20T09:59:48;5.70;99.90
6307;DHT22;3186;54.062;9.962;2023-12-20T10:02:14;5.70;99.90
6307;DHT22;3186;54.062;9.962;2023-12-20T10:04:47;5.80;99.90
6307;DHT22;3186;54.062;9.962;2023-12-20T10:07:15;5.90;99.90
6307;DHT22;3186;54.062;9.962;2023-12-20T10:09:42;5.90;99.90
6307;DHT22;3186;54.062;9.962;2023-12-20T10:12:07;5.80;99.90
6307;DHT22;3186;54.062;9.962;2023-12-20T10:14:33;5.80;99.90
6307;DHT22;3186;54.062;9.962;2023-12-20T10:17:03;5.80;99.90
6307;DHT22;3186;54.062;9.962;2023-12-20T10:19:29;5.80;99.90
6307;DHT22;3186;54.062;9.962;2023-12-20T10:21:55;5.80;99.90
6307;DHT22;3186;54.062;9.962;2023-12-20T10:24:21;5.90;99.90
6307;DHT22;3186;54.062;9.962;2023-12-20T10:26:46;5.90;99.90
6307;DHT22;3186;54.062;9.962;2023-12-20T10:29:12;5.90;99.90
6307;DHT22;3186;54.062;9.962;2023-12-20T10:31:38;6.00;99.90
6307;DHT22;3186;54.062;9.962;2023-12-20T10:34:04;6.10;99.90
6307;DHT22;3186;54.062;9.962;2023-12-20T10:36:31;6.00;99.90
6307;DHT22;3186;54.062;9.962;2023-12-20T10:38:58;6.10;99.90
6307;DHT22;3186;54.062;9.962;2023-12-20T10:41:33;6.00;99.90
6307;DHT22;3186;54.062;9.962;2023-12-20T10:44:03;6.10;99.90
6307;DHT22;3186;54.062;9.962;2023-12-20T10:46:30;6.10;99.90
6307;DHT22;3186;54.062;9.962;2023-12-20T10:48:58;6.10;99.90
6307;DHT22;3186;54.062;9.962;2023-12-20T10:51:24;6.10;99.90
6307;DHT22;3186;54.062;9.962;2023-12-20T10:53:53;6.10;99.90
6307;DHT22;3186;54.062;9.962;2023-12-20T10:56:19;6.10;99.90
6307;DHT22;3186;54.062;9.962;2023-12-20T10:58:45;6.10;99.90
6307;DHT22;3186;54.062;9.962;2023-12-20T11:01:16;6.00;99.90
6307;DHT22;3186;54.062;9.962;2023-12-20T11:03:54;6.00;99.90
6307;DHT22;3186;54.062;9.962;2023-12-20T11:06:48;6.00;99.90
6307;DHT22;3186;54.062;9.962;2023-12-20T11:09:26;6.00;99.90
6307;DHT22;3186;54.062;9.962;2023-12-20T11:12:10;6.00;99.90
6307;DHT22;3186;54.062;9.962;2023-12-20T11:17:11;6.00;99.90
6307;DHT22;3186;54.062;9.962;2023-12-20T11:22:25;5.90;99.90
6307;DHT22;3186;54.062;9.962;2023-12-20T11:24:52;6.00;99.90
6307;DHT22;3186;54.062;9.962;2023-12-20T11:27:19;5.90;99.90
6307;DHT22;3186;54.062;9.962;2023-12-20T11:29:56;5.80;99.90
6307;DHT22;3186;54.062;9.962;2023-12-20T11:34:54;5.80;99.90
6307;DHT22;3186;54.062;9.962;2023-12-20T11:37:20;5.80;99.90
6307;DHT22;3186;54.062;9.962;2023-12-20T11:39:53;5.90;99.90
6307;DHT22;3186;54.062;9.962;2023-12-20T11:42:19;5.90;99.90
6307;DHT22;3186;54.062;9.962;2023-12-20T11:44:46;6.00;99.90
6307;DHT22;3186;54.062;9.962;2023-12-20T11:47:12;5.90;99.90
6307;DHT22;3186;54.062;9.962;2023-12-20T11:49:39;5.90;99.90
6307;DHT22;3186;54.062;9.962;2023-12-20T11:52:05;6.00;99.90
6307;DHT22;3186;54.062;9.962;2023-12-20T11:54:31;6.10;99.90
6307;DHT22;3186;54.062;9.962;2023-12-20T11:56:57;6.10;99.90
6307;DHT22;3186;54.062;9.962;2023-12-20T11:59:23;6.10;99.90
6307;DHT22;3186;54.062;9.962;2023-12-20T12:01:52;6.10;99.90
6307;DHT22;3186;54.062;9.962;2023-12-20T12:04:18;6.10;99.90
6307;DHT22;3186;54.062;9.962;2023-12-20T12:06:44;6.10;99.90
6307;DHT22;3186;54.062;9.962;2023-12-20T12:09:11;6.10;99.90
6307;DHT22;3186;54.062;9.962;2023-12-20T12:11:36;6.10;99.90
6307;DHT22;3186;54.062;9.962;2023-12-20T12:14:02;6.10;99.90
6307;DHT22;3186;54.062;9.962;2023-12-20T12:16:29;6.10;99.90
6307;DHT22;3186;54.062;9.962;2023-12-20T12:18:58;6.20;99.90
6307;DHT22;3186;54.062;9.962;2023-12-20T12:21:24;6.10;99.90
6307;DHT22;3186;54.062;9.962;2023-12-20T12:23:50;6.10;99.90
6307;DHT22;3186;54.062;9.962;2023-12-20T12:26:16;6.10;99.90
6307;DHT22;3186;54.062;9.962;2023-12-20T12:28:42;6.10;99.90
6307;DHT22;3186;54.062;9.962;2023-12-20T12:31:09;6.10;99.90
6307;DHT22;3186;54.062;9.962;2023-12-20T12:33:38;6.10;99.90
6307;DHT22;3186;54.062;9.962;2023-12-20T12:36:04;6.10;99.90
6307;DHT22;3186;54.062;9.962;2023-12-20T12:38:32;6.10;99.90
6307;DHT22;3186;54.062;9.962;2023-12-20T12:40:58;6.10;99.90
6307;DHT22;3186;54.062;9.962;2023-12-20T12:43:25;6.10;99.90
6307;DHT22;3186;54.062;9.962;2023-12-20T12:45:51;6.10;99.90
6307;DHT22;3186;54.062;9.962;2023-12-20T12:48:17;6.20;99.90
6307;DHT22;3186;54.062;9.962;2023-12-20T12:50:42;6.10;99.90
6307;DHT22;3186;54.062;9.962;2023-12-20T12:53:08;6.10;99.90
6307;DHT22;3186;54.062;9.962;2023-12-20T12:55:35;6.10;99.90
6307;DHT22;3186;54.062;9.962;2023-12-20T12:58:01;6.10;99.90
6307;DHT22;3186;54.062;9.962;2023-12-20T13:00:27;6.30;99.90
6307;DHT22;3186;54.062;9.962;2023-12-20T13:02:53;6.20;99.90
6307;DHT22;3186;54.062;9.962;2023-12-20T13:05:18;6.10;99.90
6307;DHT22;3186;54.062;9.962;2023-12-20T13:07:44;6.10;99.90
6307;DHT22;3186;54.062;9.962;2023-12-20T13:10:11;6.10;99.90
6307;DHT22;3186;54.062;9.962;2023-12-20T13:12:37;6.10;99.90
6307;DHT22;3186;54.062;9.962;2023-12-20T13:15:02;6.10;99.90
6307;DHT22;3186;54.062;9.962;2023-12-20T13:17:29;6.10;99.90
6307;DHT22;3186;54.062;9.962;2023-12-20T13:19:55;6.10;99.90
6307;DHT22;3186;54.062;9.962;2023-12-20T13:22:21;6.10;99.90
6307;DHT22;3186;54.062;9.962;2023-12-20T13:24:46;6.00;99.90
6307;DHT22;3186;54.062;9.962;2023-12-20T13:27:12;6.00;99.90
6307;DHT22;3186;54.062;9.962;2023-12-20T13:29:37;6.10;99.90
6307;DHT22;3186;54.062;9.962;2023-12-20T13:32:03;6.10;99.90
6307;DHT22;3186;54.062;9.962;2023-12-20T13:34:29;6.10;99.90
6307;DHT22;3186;54.062;9.962;2023-12-20T13:36:55;6.10;99.90
6307;DHT22;3186;54.062;9.962;2023-12-20T13:39:24;6.10;99.90
6307;DHT22;3186;54.062;9.962;2023-12-20T13:41:50;6.10;99.90
6307;DHT22;3186;54.062;9.962;2023-12-20T13:44:15;6.10;99.90
6307;DHT22;3186;54.062;9.962;2023-12-20T13:46:41;6.00;99.90
6307;DHT22;3186;54.062;9.962;2023-12-20T13:49:07;6.00;99.90
6307;DHT22;3186;54.062;9.962;2023-12-20T13:51:33;6.00;99.90
6307;DHT22;3186;54.062;9.962;2023-12-20T13:53:59;6.10;99.90
6307;DHT22;3186;54.062;9.962;2023-12-20T13:56:25;6.00;99.90
6307;DHT22;3186;54.062;9.962;2023-12-20T13:58:50;6.00;99.90
6307;DHT22;3186;54.062;9.962;2023-12-20T14:01:17;6.10;99.90
6307;DHT22;3186;54.062;9.962;2023-12-20T14:03:42;6.00;99.90
6307;DHT22;3186;54.062;9.962;2023-12-20T14:06:08;6.00;99.90
6307;DHT22;3186;54.062;9.962;2023-12-20T14:08:34;6.00;99.90
6307;DHT22;3186;54.062;9.962;2023-12-20T14:10:59;6.10;99.90
6307;DHT22;3186;54.062;9.962;2023-12-20T14:13:26;6.10;99.90
6307;DHT22;3186;54.062;9.962;2023-12-20T14:15:52;5.90;99.90
6307;DHT22;3186;54.062;9.962;2023-12-20T14:18:19;5.90;99.90
6307;DHT22;3186;54.062;9.962;2023-12-20T14:20:45;5.80;99.90
6307;DHT22;3186;54.062;9.962;2023-12-20T14:23:12;5.80;99.90
6307;DHT22;3186;54.062;9.962;2023-12-20T14:25:41;5.70;99.90
6307;DHT22;3186;54.062;9.962;2023-12-20T14:28:07;5.70;99.90
6307;DHT22;3186;54.062;9.962;2023-12-20T14:30:32;5.80;99.90
6307;DHT22;3186;54.062;9.962;2023-12-20T14:32:59;5.80;99.90
6307;DHT22;3186;54.062;9.962;2023-12-20T14:35:24;5.80;99.90
6307;DHT22;3186;54.062;9.962;2023-12-20T14:37:50;5.80;99.90
6307;DHT22;3186;54.062;9.962;2023-12-20T14:40:16;5.80;99.90
6307;DHT22;3186;54.062;9.962;2023-12-20T14:42:42;5.80;99.90
6307;DHT22;3186;54.062;9.962;2023-12-20T14:45:09;5.80;99.90
6307;DHT22;3186;54.062;9.962;2023-12-20T14:47:34;5.70;99.90
6307;DHT22;3186;54.062;9.962;2023-12-20T14:50:03;5.70;99.90
6307;DHT22;3186;54.062;9.962;2023-12-20T14:52:29;5.60;99.90
6307;DHT22;3186;54.062;9.962;2023-12-20T14:54:55;5.60;99.90
6307;DHT22;3186;54.062;9.962;2023-12-20T14:57:20;5.70;99.90
6307;DHT22;3186;54.062;9.962;2023-12-20T14:59:46;5.60;99.90
6307;DHT22;3186;54.062;9.962;2023-12-20T15:02:12;5.60;99.90
6307;DHT22;3186;54.062;9.962;2023-12-20T15:04:37;5.60;99.90
6307;DHT22;3186;54.062;9.962;2023-12-20T15:07:03;5.50;99.90
6307;DHT22;3186;54.062;9.962;2023-12-20T15:09:31;5.60;99.90
6307;DHT22;3186;54.062;9.962;2023-12-20T15:11:57;5.50;99.90
6307;DHT22;3186;54.062;9.962;2023-12-20T15:14:23;5.60;99.90
6307;DHT22;3186;54.062;9.962;2023-12-20T15:16:49;5.60;99.90
6307;DHT22;3186;54.062;9.962;2023-12-20T15:19:15;5.50;99.90
6307;DHT22;3186;54.062;9.962;2023-12-20T15:21:41;5.60;99.90
6307;DHT22;3186;54.062;9.962;2023-12-20T15:24:10;5.50;99.90
6307;DHT22;3186;54.062;9.962;2023-12-20T15:26:41;5.60;99.90
6307;DHT22;3186;54.062;9.962;2023-12-20T15:29:07;5.40;99.90
6307;DHT22;3186;54.062;9.962;2023-12-20T15:31:34;5.50;99.90
6307;DHT22;3186;54.062;9.962;2023-12-20T15:34:02;5.50;99.90
6307;DHT22;3186;54.062;9.962;2023-12-20T15:36:27;5.50;99.90
6307;DHT22;3186;54.062;9.962;2023-12-20T15:38:53;5.50;99.90
6307;DHT22;3186;54.062;9.962;2023-12-20T15:41:19;5.50;99.90
6307;DHT22;3186;54.062;9.962;2023-12-20T15:43:45;5.50;99.90
6307;DHT22;3186;54.062;9.962;2023-12-20T15:46:11;5.50;99.90
6307;DHT22;3186;54.062;9.962;2023-12-20T15:48:36;5.50;99.90
6307;DHT22;3186;54.062;9.962;2023-12-20T15:51:05;5.40;99.90
6307;DHT22;3186;54.062;9.962;2023-12-20T15:53:31;5.50;99.90
6307;DHT22;3186;54.062;9.962;2023-12-20T15:55:57;5.40;99.90
6307;DHT22;3186;54.062;9.962;2023-12-20T15:58:22;5.40;99.90
6307;DHT22;3186;54.062;9.962;2023-12-20T16:00:48;5.50;99.90
6307;DHT22;3186;54.062;9.962;2023-12-20T16:03:14;5.40;99.90
6307;DHT22;3186;54.062;9.962;2023-12-20T16:05:40;5.40;99.90
6307;DHT22;3186;54.062;9.962;2023-12-20T16:08:06;5.40;99.90
6307;DHT22;3186;54.062;9.962;2023-12-20T16:10:31;5.40;99.90
6307;DHT22;3186;54.062;9.962;2023-12-20T16:12:57;5.50;99.90
6307;DHT22;3186;54.062;9.962;2023-12-20T16:15:22;5.40;99.90
6307;DHT22;3186;54.062;9.962;2023-12-20T16:17:48;5.40;99.90
6307;DHT22;3186;54.062;9.962;2023-12-20T16:20:14;5.40;99.90
6307;DHT22;3186;54.062;9.962;2023-12-20T16:22:40;5.30;99.90